METAR rapporten vliegvelden

   
LEMG - Malaga
Gewijzigd: 21-04-2018 13:00
Licht bewolkt  
Licht bewolkt  
   Wind: ZO 13 km/h
Wind: ZO 13 km/h
Temperatuur: 20°C
Dauwpunt: 13°C
Vochtigheid: 64%
Barometer: 1015 hPa
Bewolking: Licht bewolkt
Zicht: meer dan 10 km
Bewolking: Licht bewolkt 2000 ft
LEMG 211100Z 14007KT 080V210 9999 FEW020 20/13 Q1015 NOSIG
LEAL - Alicante
Gewijzigd: 21-04-2018 13:00
Helder  
Helder  
   Wind: ONO 16.7 km/h
Wind: ONO 16.7 km/h
Temperatuur: 20°C
Dauwpunt: 11°C
Vochtigheid: 56%
Barometer: 1020 hPa
Zicht: meer dan 10 km
Bewolking: Helder
LEAL 211100Z 07009KT CAVOK 20/11 Q1020 NOSIG
LEBB - Bilbao
Gewijzigd: 21-04-2018 13:00
Helder  
Helder  
   Wind: ZO 13 km/h
Wind: ZO 13 km/h
Temperatuur: 26°C
Dauwpunt: 9°C
Vochtigheid: 34%
Barometer: 1016 hPa
Zicht: meer dan 10 km
Bewolking: Helder
LEBB 211100Z 14007KT 070V210 CAVOK 26/09 Q1016 NOSIG
GCTS - Tenerife
Gewijzigd: 21-04-2018 13:00
Licht bewolkt  
Licht bewolkt  
   Wind: Zuiden 11.1 km/h
Wind: Zuiden 11.1 km/h
Temperatuur: 21°C
Dauwpunt: 8°C
Vochtigheid: 43%
Barometer: 1016 hPa
Bewolking: Licht bewolkt
Zicht: meer dan 10 km
Bewolking: Licht bewolkt 4500 ft
GCTS 211100Z 17006KT 120V210 9999 FEW045 21/08 Q1016 NOSIG
EIDW - Dublin
Gewijzigd: 21-04-2018 13:00
Licht bewolkt  
Licht bewolkt  
   Wind: OZO 24.1 km/h
Wind: OZO 24.1 km/h
Temperatuur: 14°C
Dauwpunt: 6°C
Vochtigheid: 59%
Barometer: 1018 hPa
Bewolking: Licht bewolkt
Zicht: meer dan 10 km
Bewolking: Licht bewolkt 3000 ft
EIDW 211100Z 12013KT 9999 FEW030 14/06 Q1018 NOSIG
LPFR - Albufeira
Gewijzigd: 21-04-2018 13:00
Grotendeels bewolkt  
Grotendeels bewolkt  
   Wind: ZW 18.5 km/h
Wind: ZW 18.5 km/h
Temperatuur: 16°C
Dauwpunt: 15°C
Vochtigheid: 94%
Barometer: 1013 hPa
Bewolking: Grotendeels bewolkt
Zicht: meer dan 10 km
Bewolking: Licht bewolkt 600 ft,
Grotendeels bewolkt 2500 ft
LPFR 211100Z 22010KT 9999 FEW006 BKN025 16/15 Q1013 RERA

Script ontwikkeld door  Saratoga-weather.org Aangepast voor de template door  Weerstation Leuven

U vindt ons ook hier:

Het Weer Aktueel

European Weather Network

WeatherCloud

Weather Underground

Benelux Weer Netwerk

WeatherlinkIP

Apparatuur in gebruik:

Weerstation
Davis VP2

Weerprogramma
consoleWD

Weercomputer
Raspberry

Gesponsord door
Stef van Bakel koeltechniek

Davis VP2

consoleWD

Raspberry

Stef van Bakel koeltechniek